Aeroporto :
LOGIN :

Iscrizione | Disclaimer

   EN    FR    IT 

 










Sommario :    VFR   VFR Marginale   IFR   IFR Intensivo   IFR Molto Intensivo
Visibilità : 
Base nubi : 
>= 8 km
>= 3000ft
5 / 8 km
1000 / 3000 ft
1500m / 5 km
500 / 1000 ft
800 / 1500m
200 / 500 ft
< 800m
< 200 ft
Simboli :   Temporali  Nebbia  Neve Forte  Precipitazioni Forti  Vento > 20 kt
SIGMETs :   Varie  Temporali  Ghiacco  Turbolenza  Onda orograficha  Ceneri Vulcaniche







- Altitudine del aeroporto : 446 ft
- Codice IATA : VNE
- Carte del aeroporto


LFRV - Vannes-Meucon

ULTIMO METAR :
  • 251200Z AUTO 02012KT 9999 BKN037 OVC044 12/04 Q1031

METARs OBSOLETI :
  • 251130Z AUTO 03012KT 360V060 9999 OVC032 11/04 Q1031
  • 251100Z AUTO 03013KT 9999 OVC031 11/04 Q1031
  • 251030Z AUTO 04013KT 360V060 9999 OVC030 12/05 Q1031
  • 251000Z AUTO 03015KT 9999 OVC028 11/05 Q1031
  • 250930Z AUTO 03012KT 9999 BKN018 11/06 Q1031

TAF N/A
Nessun NOTAM noto per questo aeroporto.



MetMap, La meteo Aeronautica in un colpo d'occhio ! - Copyright ORBIFLY Dicembre 2007 - Disclaimer

ORBIFLY MET'MAP TEAM :

Programmazione e sviluppo : Alexandra Zaïnal
Concezione e sviluppo : Baudouin d'Aumeries
Co-Programmazione e sviluppo : Marc-Olivier Méhu
Supporto tecnico e logistico : Manuel Goepfert
Aiuto per la traduzione : Arnaldo La Scala

Contatto : metmap@orbifly.com




FONTI E CREDITI :

   NOAA